sensor_id;sensor_type;location;lat;lon;timestamp;P1;durP1;ratioP1;P2;durP2;ratioP2
21352;SDS011;10834;52.268;6.770;2023-09-12T00:02:06;56.72;;;35.30;;
21352;SDS011;10834;52.268;6.770;2023-09-12T00:04:50;58.35;;;35.40;;
21352;SDS011;10834;52.268;6.770;2023-09-12T00:07:34;52.05;;;34.85;;
21352;SDS011;10834;52.268;6.770;2023-09-12T00:10:19;50.83;;;34.53;;
21352;SDS011;10834;52.268;6.770;2023-09-12T00:13:04;52.17;;;34.97;;
21352;SDS011;10834;52.268;6.770;2023-09-12T00:15:48;54.10;;;33.28;;
21352;SDS011;10834;52.268;6.770;2023-09-12T00:18:32;52.75;;;33.50;;
21352;SDS011;10834;52.268;6.770;2023-09-12T00:21:19;50.97;;;32.15;;
21352;SDS011;10834;52.268;6.770;2023-09-12T00:24:03;50.53;;;31.98;;
21352;SDS011;10834;52.268;6.770;2023-09-12T00:26:48;54.70;;;33.55;;
21352;SDS011;10834;52.268;6.770;2023-09-12T00:29:32;57.08;;;34.30;;
21352;SDS011;10834;52.268;6.770;2023-09-12T00:32:16;51.08;;;33.00;;
21352;SDS011;10834;52.268;6.770;2023-09-12T00:35:00;47.58;;;32.85;;
21352;SDS011;10834;52.268;6.770;2023-09-12T00:37:44;46.13;;;30.48;;
21352;SDS011;10834;52.268;6.770;2023-09-12T00:40:29;47.25;;;32.67;;
21352;SDS011;10834;52.268;6.770;2023-09-12T00:43:13;50.08;;;33.10;;
21352;SDS011;10834;52.268;6.770;2023-09-12T00:45:57;47.83;;;31.25;;
21352;SDS011;10834;52.268;6.770;2023-09-12T00:48:41;42.30;;;30.23;;
21352;SDS011;10834;52.268;6.770;2023-09-12T00:51:25;47.70;;;31.30;;
21352;SDS011;10834;52.268;6.770;2023-09-12T00:54:10;52.53;;;33.15;;
21352;SDS011;10834;52.268;6.770;2023-09-12T00:56:55;54.53;;;34.00;;
21352;SDS011;10834;52.268;6.770;2023-09-12T00:59:39;53.35;;;34.40;;
21352;SDS011;10834;52.268;6.770;2023-09-12T01:02:24;58.75;;;35.15;;
21352;SDS011;10834;52.268;6.770;2023-09-12T01:05:09;58.22;;;34.65;;
21352;SDS011;10834;52.268;6.770;2023-09-12T01:07:54;53.95;;;35.53;;
21352;SDS011;10834;52.268;6.770;2023-09-12T01:10:40;61.85;;;34.88;;
21352;SDS011;10834;52.268;6.770;2023-09-12T01:13:30;54.85;;;34.50;;
21352;SDS011;10834;52.268;6.770;2023-09-12T01:16:14;50.22;;;32.70;;
21352;SDS011;10834;52.268;6.770;2023-09-12T01:18:58;54.78;;;34.22;;
21352;SDS011;10834;52.268;6.770;2023-09-12T01:21:52;56.35;;;35.58;;
21352;SDS011;10834;52.268;6.770;2023-09-12T01:27:47;69.15;;;42.20;;
21352;SDS011;10834;52.268;6.770;2023-09-12T01:30:34;67.95;;;41.35;;
21352;SDS011;10834;52.268;6.770;2023-09-12T01:33:20;64.05;;;40.88;;
21352;SDS011;10834;52.268;6.770;2023-09-12T01:36:04;60.25;;;38.67;;
21352;SDS011;10834;52.268;6.770;2023-09-12T01:38:48;74.03;;;39.58;;
21352;SDS011;10834;52.268;6.770;2023-09-12T01:41:34;79.30;;;42.78;;
21352;SDS011;10834;52.268;6.770;2023-09-12T01:44:22;70.82;;;42.38;;
21352;SDS011;10834;52.268;6.770;2023-09-12T01:47:08;72.75;;;40.70;;
21352;SDS011;10834;52.268;6.770;2023-09-12T01:49:56;70.57;;;41.10;;
21352;SDS011;10834;52.268;6.770;2023-09-12T01:52:42;80.15;;;42.72;;
21352;SDS011;10834;52.268;6.770;2023-09-12T01:55:27;66.13;;;41.67;;
21352;SDS011;10834;52.268;6.770;2023-09-12T01:58:12;68.90;;;40.35;;
21352;SDS011;10834;52.268;6.770;2023-09-12T02:00:57;67.18;;;39.92;;
21352;SDS011;10834;52.268;6.770;2023-09-12T02:03:41;63.80;;;38.97;;
21352;SDS011;10834;52.268;6.770;2023-09-12T02:06:25;62.08;;;34.55;;
21352;SDS011;10834;52.268;6.770;2023-09-12T02:09:09;56.00;;;33.58;;
21352;SDS011;10834;52.268;6.770;2023-09-12T02:11:53;55.17;;;34.53;;
21352;SDS011;10834;52.268;6.770;2023-09-12T02:14:37;56.63;;;35.63;;
21352;SDS011;10834;52.268;6.770;2023-09-12T02:17:21;53.35;;;33.38;;
21352;SDS011;10834;52.268;6.770;2023-09-12T02:20:07;60.83;;;34.25;;
21352;SDS011;10834;52.268;6.770;2023-09-12T02:22:51;52.88;;;33.42;;
21352;SDS011;10834;52.268;6.770;2023-09-12T02:25:35;52.20;;;31.55;;
21352;SDS011;10834;52.268;6.770;2023-09-12T02:28:20;54.83;;;34.75;;
21352;SDS011;10834;52.268;6.770;2023-09-12T02:31:11;52.03;;;32.30;;
21352;SDS011;10834;52.268;6.770;2023-09-12T02:33:55;53.30;;;32.55;;
21352;SDS011;10834;52.268;6.770;2023-09-12T02:36:39;54.85;;;32.20;;
21352;SDS011;10834;52.268;6.770;2023-09-12T02:39:24;58.13;;;32.60;;
21352;SDS011;10834;52.268;6.770;2023-09-12T02:42:08;50.25;;;31.58;;
21352;SDS011;10834;52.268;6.770;2023-09-12T02:44:53;51.38;;;32.45;;
21352;SDS011;10834;52.268;6.770;2023-09-12T02:47:36;49.25;;;31.15;;
21352;SDS011;10834;52.268;6.770;2023-09-12T02:50:21;46.03;;;31.20;;
21352;SDS011;10834;52.268;6.770;2023-09-12T02:53:05;50.20;;;30.02;;
21352;SDS011;10834;52.268;6.770;2023-09-12T02:55:51;52.35;;;31.50;;
21352;SDS011;10834;52.268;6.770;2023-09-12T02:58:35;49.22;;;31.45;;
21352;SDS011;10834;52.268;6.770;2023-09-12T03:01:20;55.08;;;30.92;;
21352;SDS011;10834;52.268;6.770;2023-09-12T03:04:05;53.03;;;32.35;;
21352;SDS011;10834;52.268;6.770;2023-09-12T03:06:49;55.42;;;31.98;;
21352;SDS011;10834;52.268;6.770;2023-09-12T03:09:33;51.95;;;32.30;;
21352;SDS011;10834;52.268;6.770;2023-09-12T03:12:17;51.17;;;30.45;;
21352;SDS011;10834;52.268;6.770;2023-09-12T03:15:01;48.13;;;30.25;;
21352;SDS011;10834;52.268;6.770;2023-09-12T03:17:46;47.70;;;28.42;;
21352;SDS011;10834;52.268;6.770;2023-09-12T03:20:30;44.58;;;29.45;;
21352;SDS011;10834;52.268;6.770;2023-09-12T03:23:14;56.40;;;31.05;;
21352;SDS011;10834;52.268;6.770;2023-09-12T03:26:05;44.08;;;28.48;;
21352;SDS011;10834;52.268;6.770;2023-09-12T03:28:49;46.17;;;29.08;;
21352;SDS011;10834;52.268;6.770;2023-09-12T03:31:35;46.90;;;28.67;;
21352;SDS011;10834;52.268;6.770;2023-09-12T03:34:20;41.22;;;27.83;;
21352;SDS011;10834;52.268;6.770;2023-09-12T03:37:04;44.85;;;28.90;;
21352;SDS011;10834;52.268;6.770;2023-09-12T03:39:48;44.33;;;31.00;;
21352;SDS011;10834;52.268;6.770;2023-09-12T03:42:32;46.78;;;29.45;;
21352;SDS011;10834;52.268;6.770;2023-09-12T03:45:16;44.00;;;28.75;;
21352;SDS011;10834;52.268;6.770;2023-09-12T03:48:00;48.15;;;30.75;;
21352;SDS011;10834;52.268;6.770;2023-09-12T03:50:44;42.28;;;30.13;;
21352;SDS011;10834;52.268;6.770;2023-09-12T03:53:29;48.90;;;30.05;;
21352;SDS011;10834;52.268;6.770;2023-09-12T03:56:13;44.53;;;29.35;;
21352;SDS011;10834;52.268;6.770;2023-09-12T03:58:58;51.60;;;32.22;;
21352;SDS011;10834;52.268;6.770;2023-09-12T04:01:43;54.72;;;31.42;;
21352;SDS011;10834;52.268;6.770;2023-09-12T04:04:27;46.13;;;30.23;;
21352;SDS011;10834;52.268;6.770;2023-09-12T04:07:11;45.47;;;29.35;;
21352;SDS011;10834;52.268;6.770;2023-09-12T04:09:56;48.05;;;29.67;;
21352;SDS011;10834;52.268;6.770;2023-09-12T04:12:40;54.28;;;31.17;;
21352;SDS011;10834;52.268;6.770;2023-09-12T04:15:24;47.80;;;32.08;;
21352;SDS011;10834;52.268;6.770;2023-09-12T04:18:09;47.92;;;30.83;;
21352;SDS011;10834;52.268;6.770;2023-09-12T04:20:53;47.30;;;30.58;;
21352;SDS011;10834;52.268;6.770;2023-09-12T04:23:40;47.95;;;31.92;;
21352;SDS011;10834;52.268;6.770;2023-09-12T04:26:24;51.30;;;31.73;;
21352;SDS011;10834;52.268;6.770;2023-09-12T04:29:08;45.75;;;30.38;;
21352;SDS011;10834;52.268;6.770;2023-09-12T04:31:53;52.67;;;30.85;;
21352;SDS011;10834;52.268;6.770;2023-09-12T04:34:42;44.25;;;30.17;;
21352;SDS011;10834;52.268;6.770;2023-09-12T04:37:27;46.90;;;29.50;;
21352;SDS011;10834;52.268;6.770;2023-09-12T04:40:11;51.20;;;30.65;;
21352;SDS011;10834;52.268;6.770;2023-09-12T04:42:55;50.47;;;28.58;;
21352;SDS011;10834;52.268;6.770;2023-09-12T04:45:39;36.03;;;24.48;;
21352;SDS011;10834;52.268;6.770;2023-09-12T04:48:24;36.83;;;28.55;;
21352;SDS011;10834;52.268;6.770;2023-09-12T04:51:08;53.72;;;29.95;;
21352;SDS011;10834;52.268;6.770;2023-09-12T04:53:53;37.08;;;28.70;;
21352;SDS011;10834;52.268;6.770;2023-09-12T04:56:37;52.10;;;28.85;;
21352;SDS011;10834;52.268;6.770;2023-09-12T04:59:21;48.33;;;26.77;;
21352;SDS011;10834;52.268;6.770;2023-09-12T05:02:05;34.80;;;26.38;;
21352;SDS011;10834;52.268;6.770;2023-09-12T05:04:49;45.65;;;28.02;;
21352;SDS011;10834;52.268;6.770;2023-09-12T05:07:33;39.25;;;26.70;;
21352;SDS011;10834;52.268;6.770;2023-09-12T05:10:17;39.78;;;27.02;;
21352;SDS011;10834;52.268;6.770;2023-09-12T05:13:02;45.20;;;27.42;;
21352;SDS011;10834;52.268;6.770;2023-09-12T05:15:46;35.72;;;26.77;;
21352;SDS011;10834;52.268;6.770;2023-09-12T05:18:30;46.75;;;27.67;;
21352;SDS011;10834;52.268;6.770;2023-09-12T05:21:15;41.38;;;27.27;;
21352;SDS011;10834;52.268;6.770;2023-09-12T05:23:59;66.63;;;28.13;;
21352;SDS011;10834;52.268;6.770;2023-09-12T05:26:43;56.88;;;28.63;;
21352;SDS011;10834;52.268;6.770;2023-09-12T05:29:27;41.08;;;28.15;;
21352;SDS011;10834;52.268;6.770;2023-09-12T05:32:12;34.85;;;26.58;;
21352;SDS011;10834;52.268;6.770;2023-09-12T05:34:56;37.42;;;26.85;;
21352;SDS011;10834;52.268;6.770;2023-09-12T05:37:40;38.08;;;27.42;;
21352;SDS011;10834;52.268;6.770;2023-09-12T05:40:24;36.45;;;27.35;;
21352;SDS011;10834;52.268;6.770;2023-09-12T05:43:08;39.65;;;26.58;;
21352;SDS011;10834;52.268;6.770;2023-09-12T05:45:52;41.80;;;26.65;;
21352;SDS011;10834;52.268;6.770;2023-09-12T05:48:36;40.28;;;27.20;;
21352;SDS011;10834;52.268;6.770;2023-09-12T05:51:20;37.65;;;27.67;;
21352;SDS011;10834;52.268;6.770;2023-09-12T05:54:05;38.15;;;27.15;;
21352;SDS011;10834;52.268;6.770;2023-09-12T05:56:49;39.00;;;26.52;;
21352;SDS011;10834;52.268;6.770;2023-09-12T05:59:36;35.20;;;26.17;;
21352;SDS011;10834;52.268;6.770;2023-09-12T06:02:21;43.72;;;27.75;;
21352;SDS011;10834;52.268;6.770;2023-09-12T06:05:06;47.35;;;28.90;;
21352;SDS011;10834;52.268;6.770;2023-09-12T06:07:50;33.28;;;24.25;;
21352;SDS011;10834;52.268;6.770;2023-09-12T06:10:34;43.55;;;27.70;;
21352;SDS011;10834;52.268;6.770;2023-09-12T06:13:19;39.58;;;27.40;;
21352;SDS011;10834;52.268;6.770;2023-09-12T06:16:04;37.90;;;27.90;;
21352;SDS011;10834;52.268;6.770;2023-09-12T06:18:49;43.45;;;26.65;;
21352;SDS011;10834;52.268;6.770;2023-09-12T06:21:33;38.85;;;27.92;;
21352;SDS011;10834;52.268;6.770;2023-09-12T06:24:19;42.80;;;29.60;;
21352;SDS011;10834;52.268;6.770;2023-09-12T06:27:07;42.20;;;28.75;;
21352;SDS011;10834;52.268;6.770;2023-09-12T06:29:51;39.50;;;28.65;;
21352;SDS011;10834;52.268;6.770;2023-09-12T06:32:35;46.25;;;31.08;;
21352;SDS011;10834;52.268;6.770;2023-09-12T06:35:20;49.70;;;29.92;;
21352;SDS011;10834;52.268;6.770;2023-09-12T06:38:04;47.28;;;31.65;;
21352;SDS011;10834;52.268;6.770;2023-09-12T06:40:49;52.78;;;32.08;;
21352;SDS011;10834;52.268;6.770;2023-09-12T06:43:32;48.58;;;32.03;;
21352;SDS011;10834;52.268;6.770;2023-09-12T06:46:16;50.90;;;32.50;;
21352;SDS011;10834;52.268;6.770;2023-09-12T06:49:01;54.58;;;34.42;;
21352;SDS011;10834;52.268;6.770;2023-09-12T06:51:46;54.55;;;33.85;;
21352;SDS011;10834;52.268;6.770;2023-09-12T06:54:32;61.90;;;38.00;;
21352;SDS011;10834;52.268;6.770;2023-09-12T06:57:16;63.60;;;36.95;;
21352;SDS011;10834;52.268;6.770;2023-09-12T07:00:01;55.65;;;35.90;;
21352;SDS011;10834;52.268;6.770;2023-09-12T07:02:50;55.80;;;35.42;;
21352;SDS011;10834;52.268;6.770;2023-09-12T07:05:35;54.53;;;33.40;;
21352;SDS011;10834;52.268;6.770;2023-09-12T07:08:20;53.30;;;35.47;;
21352;SDS011;10834;52.268;6.770;2023-09-12T07:11:04;54.30;;;35.30;;
21352;SDS011;10834;52.268;6.770;2023-09-12T07:13:51;56.47;;;36.40;;
21352;SDS011;10834;52.268;6.770;2023-09-12T07:16:35;52.75;;;33.35;;
21352;SDS011;10834;52.268;6.770;2023-09-12T07:19:20;52.33;;;33.45;;
21352;SDS011;10834;52.268;6.770;2023-09-12T07:22:04;54.55;;;33.55;;
21352;SDS011;10834;52.268;6.770;2023-09-12T07:24:49;49.67;;;33.10;;
21352;SDS011;10834;52.268;6.770;2023-09-12T07:27:33;57.67;;;34.03;;
21352;SDS011;10834;52.268;6.770;2023-09-12T07:30:17;48.88;;;33.30;;
21352;SDS011;10834;52.268;6.770;2023-09-12T07:33:03;52.35;;;33.40;;
21352;SDS011;10834;52.268;6.770;2023-09-12T07:35:48;55.95;;;34.40;;
21352;SDS011;10834;52.268;6.770;2023-09-12T07:38:35;52.85;;;33.08;;
21352;SDS011;10834;52.268;6.770;2023-09-12T07:41:20;48.35;;;31.55;;
21352;SDS011;10834;52.268;6.770;2023-09-12T07:44:05;58.92;;;34.17;;
21352;SDS011;10834;52.268;6.770;2023-09-12T07:46:51;55.33;;;31.45;;
21352;SDS011;10834;52.268;6.770;2023-09-12T07:49:35;49.00;;;32.33;;
21352;SDS011;10834;52.268;6.770;2023-09-12T07:52:19;52.42;;;32.83;;
21352;SDS011;10834;52.268;6.770;2023-09-12T07:55:04;50.15;;;31.60;;
21352;SDS011;10834;52.268;6.770;2023-09-12T07:57:50;49.47;;;31.70;;
21352;SDS011;10834;52.268;6.770;2023-09-12T08:00:36;47.55;;;30.65;;
21352;SDS011;10834;52.268;6.770;2023-09-12T08:03:20;52.42;;;31.73;;
21352;SDS011;10834;52.268;6.770;2023-09-12T08:06:04;48.78;;;31.92;;
21352;SDS011;10834;52.268;6.770;2023-09-12T08:08:49;51.28;;;32.30;;
21352;SDS011;10834;52.268;6.770;2023-09-12T08:11:33;49.47;;;30.80;;
21352;SDS011;10834;52.268;6.770;2023-09-12T08:14:17;46.55;;;30.60;;
21352;SDS011;10834;52.268;6.770;2023-09-12T08:17:04;51.97;;;32.42;;
21352;SDS011;10834;52.268;6.770;2023-09-12T08:19:49;56.65;;;34.13;;
21352;SDS011;10834;52.268;6.770;2023-09-12T08:22:33;50.28;;;32.58;;
21352;SDS011;10834;52.268;6.770;2023-09-12T08:25:17;47.88;;;30.35;;
21352;SDS011;10834;52.268;6.770;2023-09-12T08:28:01;50.58;;;32.33;;
21352;SDS011;10834;52.268;6.770;2023-09-12T08:30:46;52.95;;;31.95;;
21352;SDS011;10834;52.268;6.770;2023-09-12T08:33:31;53.42;;;33.47;;
21352;SDS011;10834;52.268;6.770;2023-09-12T08:36:15;56.17;;;32.83;;
21352;SDS011;10834;52.268;6.770;2023-09-12T08:38:59;52.67;;;33.55;;
21352;SDS011;10834;52.268;6.770;2023-09-12T08:41:44;53.40;;;34.53;;
21352;SDS011;10834;52.268;6.770;2023-09-12T08:44:31;54.58;;;32.85;;
21352;SDS011;10834;52.268;6.770;2023-09-12T08:47:16;51.88;;;30.55;;
21352;SDS011;10834;52.268;6.770;2023-09-12T08:50:06;49.40;;;31.27;;
21352;SDS011;10834;52.268;6.770;2023-09-12T08:52:56;50.33;;;32.42;;
21352;SDS011;10834;52.268;6.770;2023-09-12T08:55:40;47.58;;;31.38;;
21352;SDS011;10834;52.268;6.770;2023-09-12T08:58:25;42.78;;;30.00;;
21352;SDS011;10834;52.268;6.770;2023-09-12T09:01:10;38.53;;;27.85;;
21352;SDS011;10834;52.268;6.770;2023-09-12T09:03:57;38.30;;;26.67;;
21352;SDS011;10834;52.268;6.770;2023-09-12T09:06:42;33.40;;;26.35;;
21352;SDS011;10834;52.268;6.770;2023-09-12T09:09:27;39.88;;;27.35;;
21352;SDS011;10834;52.268;6.770;2023-09-12T09:12:14;36.28;;;26.38;;
21352;SDS011;10834;52.268;6.770;2023-09-12T09:14:58;37.28;;;26.40;;
21352;SDS011;10834;52.268;6.770;2023-09-12T09:17:43;33.00;;;25.70;;
21352;SDS011;10834;52.268;6.770;2023-09-12T09:20:28;34.08;;;25.20;;
21352;SDS011;10834;52.268;6.770;2023-09-12T09:23:20;32.00;;;25.23;;
21352;SDS011;10834;52.268;6.770;2023-09-12T09:26:07;30.25;;;24.05;;
21352;SDS011;10834;52.268;6.770;2023-09-12T09:29:05;28.33;;;22.77;;
21352;SDS011;10834;52.268;6.770;2023-09-12T09:31:51;31.25;;;23.52;;
21352;SDS011;10834;52.268;6.770;2023-09-12T09:34:35;27.52;;;23.10;;
21352;SDS011;10834;52.268;6.770;2023-09-12T09:37:23;27.85;;;22.65;;
21352;SDS011;10834;52.268;6.770;2023-09-12T09:40:07;25.08;;;22.38;;
21352;SDS011;10834;52.268;6.770;2023-09-12T09:42:58;28.60;;;23.13;;
21352;SDS011;10834;52.268;6.770;2023-09-12T09:45:44;31.08;;;22.27;;
21352;SDS011;10834;52.268;6.770;2023-09-12T09:48:29;27.48;;;22.45;;
21352;SDS011;10834;52.268;6.770;2023-09-12T09:51:16;22.13;;;19.80;;
21352;SDS011;10834;52.268;6.770;2023-09-12T09:54:01;24.88;;;21.55;;
21352;SDS011;10834;52.268;6.770;2023-09-12T09:56:55;27.65;;;24.73;;
21352;SDS011;10834;52.268;6.770;2023-09-12T09:59:40;22.92;;;20.63;;
21352;SDS011;10834;52.268;6.770;2023-09-12T10:02:25;23.35;;;21.00;;
21352;SDS011;10834;52.268;6.770;2023-09-12T10:05:11;21.15;;;18.95;;
21352;SDS011;10834;52.268;6.770;2023-09-12T10:07:57;21.63;;;18.48;;
21352;SDS011;10834;52.268;6.770;2023-09-12T10:10:44;20.52;;;18.33;;
21352;SDS011;10834;52.268;6.770;2023-09-12T10:13:29;19.85;;;17.50;;
21352;SDS011;10834;52.268;6.770;2023-09-12T10:16:17;19.23;;;16.85;;
21352;SDS011;10834;52.268;6.770;2023-09-12T10:19:23;21.25;;;17.13;;
21352;SDS011;10834;52.268;6.770;2023-09-12T10:22:18;18.17;;;16.27;;
21352;SDS011;10834;52.268;6.770;2023-09-12T10:25:07;18.50;;;16.52;;
21352;SDS011;10834;52.268;6.770;2023-09-12T10:27:52;16.58;;;14.88;;
21352;SDS011;10834;52.268;6.770;2023-09-12T10:30:37;16.20;;;14.48;;
21352;SDS011;10834;52.268;6.770;2023-09-12T10:33:23;16.95;;;15.25;;
21352;SDS011;10834;52.268;6.770;2023-09-12T10:36:08;16.92;;;14.82;;
21352;SDS011;10834;52.268;6.770;2023-09-12T10:38:53;17.40;;;15.60;;
21352;SDS011;10834;52.268;6.770;2023-09-12T10:41:39;17.25;;;15.63;;
21352;SDS011;10834;52.268;6.770;2023-09-12T10:44:24;19.30;;;17.40;;
21352;SDS011;10834;52.268;6.770;2023-09-12T10:47:09;17.17;;;15.30;;
21352;SDS011;10834;52.268;6.770;2023-09-12T10:49:54;17.08;;;15.43;;
21352;SDS011;10834;52.268;6.770;2023-09-12T10:52:39;18.48;;;16.55;;
21352;SDS011;10834;52.268;6.770;2023-09-12T10:55:24;18.60;;;16.88;;
21352;SDS011;10834;52.268;6.770;2023-09-12T10:58:09;19.67;;;17.63;;
21352;SDS011;10834;52.268;6.770;2023-09-12T11:10:34;18.85;;;17.05;;
21352;SDS011;10834;52.268;6.770;2023-09-12T11:13:18;18.75;;;16.95;;
21352;SDS011;10834;52.268;6.770;2023-09-12T11:16:15;18.80;;;16.95;;
21352;SDS011;10834;52.268;6.770;2023-09-12T11:19:17;16.58;;;15.13;;
21352;SDS011;10834;52.268;6.770;2023-09-12T11:22:03;18.25;;;16.42;;
21352;SDS011;10834;52.268;6.770;2023-09-12T11:28:09;17.45;;;15.85;;
21352;SDS011;10834;52.268;6.770;2023-09-12T11:30:57;17.23;;;15.52;;
21352;SDS011;10834;52.268;6.770;2023-09-12T11:33:42;16.95;;;15.40;;
21352;SDS011;10834;52.268;6.770;2023-09-12T11:36:26;20.05;;;16.55;;
21352;SDS011;10834;52.268;6.770;2023-09-12T11:39:30;17.63;;;15.95;;
21352;SDS011;10834;52.268;6.770;2023-09-12T11:42:19;17.67;;;15.93;;
21352;SDS011;10834;52.268;6.770;2023-09-12T11:45:09;18.00;;;16.10;;
21352;SDS011;10834;52.268;6.770;2023-09-12T11:47:54;16.48;;;14.40;;
21352;SDS011;10834;52.268;6.770;2023-09-12T11:50:38;14.82;;;13.32;;
21352;SDS011;10834;52.268;6.770;2023-09-12T11:53:25;14.65;;;12.43;;
21352;SDS011;10834;52.268;6.770;2023-09-12T11:56:14;15.85;;;13.95;;
21352;SDS011;10834;52.268;6.770;2023-09-12T11:58:58;15.68;;;14.07;;
21352;SDS011;10834;52.268;6.770;2023-09-12T12:01:44;15.77;;;14.20;;
21352;SDS011;10834;52.268;6.770;2023-09-12T12:04:30;14.25;;;12.75;;
21352;SDS011;10834;52.268;6.770;2023-09-12T12:07:14;16.05;;;13.55;;
21352;SDS011;10834;52.268;6.770;2023-09-12T12:09:58;20.55;;;15.40;;
21352;SDS011;10834;52.268;6.770;2023-09-12T12:12:44;17.83;;;15.35;;
21352;SDS011;10834;52.268;6.770;2023-09-12T12:15:29;16.00;;;14.27;;
21352;SDS011;10834;52.268;6.770;2023-09-12T12:18:14;15.07;;;13.48;;
21352;SDS011;10834;52.268;6.770;2023-09-12T12:20:58;15.73;;;14.23;;
21352;SDS011;10834;52.268;6.770;2023-09-12T12:23:42;20.90;;;13.40;;
21352;SDS011;10834;52.268;6.770;2023-09-12T12:26:26;14.63;;;13.07;;
21352;SDS011;10834;52.268;6.770;2023-09-12T12:29:11;14.85;;;13.35;;
21352;SDS011;10834;52.268;6.770;2023-09-12T12:32:00;13.13;;;11.82;;
21352;SDS011;10834;52.268;6.770;2023-09-12T12:34:48;14.18;;;12.73;;
21352;SDS011;10834;52.268;6.770;2023-09-12T12:37:33;12.68;;;11.48;;
21352;SDS011;10834;52.268;6.770;2023-09-12T12:40:18;14.25;;;12.23;;
21352;SDS011;10834;52.268;6.770;2023-09-12T12:43:03;14.40;;;12.90;;
21352;SDS011;10834;52.268;6.770;2023-09-12T12:45:54;13.93;;;12.18;;
21352;SDS011;10834;52.268;6.770;2023-09-12T12:48:38;12.60;;;11.10;;
21352;SDS011;10834;52.268;6.770;2023-09-12T12:51:29;13.88;;;11.95;;
21352;SDS011;10834;52.268;6.770;2023-09-12T12:54:14;12.73;;;11.50;;
21352;SDS011;10834;52.268;6.770;2023-09-12T12:57:00;13.05;;;11.75;;
21352;SDS011;10834;52.268;6.770;2023-09-12T12:59:46;14.98;;;13.50;;
21352;SDS011;10834;52.268;6.770;2023-09-12T13:02:31;16.83;;;13.93;;
21352;SDS011;10834;52.268;6.770;2023-09-12T13:05:19;17.20;;;12.68;;
21352;SDS011;10834;52.268;6.770;2023-09-12T13:08:05;13.13;;;11.85;;
21352;SDS011;10834;52.268;6.770;2023-09-12T13:10:49;13.85;;;12.45;;
21352;SDS011;10834;52.268;6.770;2023-09-12T13:13:34;13.73;;;12.23;;
21352;SDS011;10834;52.268;6.770;2023-09-12T13:16:20;12.75;;;11.25;;
21352;SDS011;10834;52.268;6.770;2023-09-12T13:19:04;12.57;;;10.95;;
21352;SDS011;10834;52.268;6.770;2023-09-12T13:21:48;12.85;;;10.90;;
21352;SDS011;10834;52.268;6.770;2023-09-12T13:24:32;11.65;;;10.40;;
21352;SDS011;10834;52.268;6.770;2023-09-12T13:27:16;12.40;;;10.55;;
21352;SDS011;10834;52.268;6.770;2023-09-12T13:30:00;11.35;;;10.15;;
21352;SDS011;10834;52.268;6.770;2023-09-12T13:32:45;12.77;;;9.88;;
21352;SDS011;10834;52.268;6.770;2023-09-12T13:35:29;9.27;;;8.38;;
21352;SDS011;10834;52.268;6.770;2023-09-12T13:38:14;13.20;;;9.60;;
21352;SDS011;10834;52.268;6.770;2023-09-12T13:41:00;10.43;;;8.40;;
21352;SDS011;10834;52.268;6.770;2023-09-12T13:43:44;8.57;;;7.63;;
21352;SDS011;10834;52.268;6.770;2023-09-12T13:46:32;9.63;;;7.90;;
21352;SDS011;10834;52.268;6.770;2023-09-12T13:49:16;8.30;;;7.07;;
21352;SDS011;10834;52.268;6.770;2023-09-12T13:52:00;11.90;;;7.05;;
21352;SDS011;10834;52.268;6.770;2023-09-12T13:54:44;5.93;;;5.38;;
21352;SDS011;10834;52.268;6.770;2023-09-12T13:57:29;10.10;;;6.35;;
21352;SDS011;10834;52.268;6.770;2023-09-12T14:00:13;7.00;;;6.32;;
21352;SDS011;10834;52.268;6.770;2023-09-12T14:02:58;7.93;;;6.00;;
21352;SDS011;10834;52.268;6.770;2023-09-12T14:05:42;7.57;;;6.13;;
21352;SDS011;10834;52.268;6.770;2023-09-12T14:08:26;6.13;;;5.63;;
21352;SDS011;10834;52.268;6.770;2023-09-12T14:11:10;7.88;;;6.53;;
21352;SDS011;10834;52.268;6.770;2023-09-12T14:13:54;7.03;;;6.13;;
21352;SDS011;10834;52.268;6.770;2023-09-12T14:16:39;9.13;;;5.38;;
21352;SDS011;10834;52.268;6.770;2023-09-12T14:19:23;6.90;;;5.30;;
21352;SDS011;10834;52.268;6.770;2023-09-12T14:22:07;8.73;;;6.20;;
21352;SDS011;10834;52.268;6.770;2023-09-12T14:24:51;6.60;;;5.93;;
21352;SDS011;10834;52.268;6.770;2023-09-12T14:27:35;10.15;;;5.43;;
21352;SDS011;10834;52.268;6.770;2023-09-12T14:30:19;7.10;;;6.40;;
21352;SDS011;10834;52.268;6.770;2023-09-12T14:33:05;8.32;;;6.72;;
21352;SDS011;10834;52.268;6.770;2023-09-12T14:35:49;7.93;;;7.13;;
21352;SDS011;10834;52.268;6.770;2023-09-12T14:38:33;9.30;;;7.47;;
21352;SDS011;10834;52.268;6.770;2023-09-12T14:41:17;7.78;;;7.07;;
21352;SDS011;10834;52.268;6.770;2023-09-12T14:44:01;8.98;;;6.90;;
21352;SDS011;10834;52.268;6.770;2023-09-12T14:46:45;7.35;;;6.55;;
21352;SDS011;10834;52.268;6.770;2023-09-12T14:49:30;7.53;;;6.72;;
21352;SDS011;10834;52.268;6.770;2023-09-12T14:52:14;7.35;;;6.60;;
21352;SDS011;10834;52.268;6.770;2023-09-12T14:54:58;7.57;;;6.57;;
21352;SDS011;10834;52.268;6.770;2023-09-12T14:57:42;9.02;;;6.90;;
21352;SDS011;10834;52.268;6.770;2023-09-12T15:00:27;7.53;;;6.38;;
21352;SDS011;10834;52.268;6.770;2023-09-12T15:03:11;8.77;;;6.60;;
21352;SDS011;10834;52.268;6.770;2023-09-12T15:05:55;7.82;;;7.00;;
21352;SDS011;10834;52.268;6.770;2023-09-12T15:08:39;10.18;;;7.55;;
21352;SDS011;10834;52.268;6.770;2023-09-12T15:11:23;8.02;;;7.07;;
21352;SDS011;10834;52.268;6.770;2023-09-12T15:14:08;8.75;;;7.28;;
21352;SDS011;10834;52.268;6.770;2023-09-12T15:16:52;7.25;;;6.55;;
21352;SDS011;10834;52.268;6.770;2023-09-12T15:19:36;7.53;;;6.82;;
21352;SDS011;10834;52.268;6.770;2023-09-12T15:22:20;8.60;;;7.25;;
21352;SDS011;10834;52.268;6.770;2023-09-12T15:25:05;11.32;;;7.57;;
21352;SDS011;10834;52.268;6.770;2023-09-12T15:27:49;9.13;;;7.22;;
21352;SDS011;10834;52.268;6.770;2023-09-12T15:30:34;8.27;;;7.13;;
21352;SDS011;10834;52.268;6.770;2023-09-12T15:33:19;8.10;;;6.93;;
21352;SDS011;10834;52.268;6.770;2023-09-12T15:36:05;7.75;;;6.95;;
21352;SDS011;10834;52.268;6.770;2023-09-12T15:38:49;8.23;;;7.35;;
21352;SDS011;10834;52.268;6.770;2023-09-12T15:41:34;8.15;;;7.35;;
21352;SDS011;10834;52.268;6.770;2023-09-12T15:44:18;9.32;;;7.30;;
21352;SDS011;10834;52.268;6.770;2023-09-12T15:47:02;10.45;;;8.23;;
21352;SDS011;10834;52.268;6.770;2023-09-12T15:49:46;9.65;;;7.78;;
21352;SDS011;10834;52.268;6.770;2023-09-12T15:52:31;9.73;;;7.43;;
21352;SDS011;10834;52.268;6.770;2023-09-12T15:55:20;8.63;;;7.80;;
21352;SDS011;10834;52.268;6.770;2023-09-12T15:58:04;9.27;;;7.90;;
21352;SDS011;10834;52.268;6.770;2023-09-12T16:00:48;8.27;;;7.32;;
21352;SDS011;10834;52.268;6.770;2023-09-12T16:03:32;9.85;;;7.38;;
21352;SDS011;10834;52.268;6.770;2023-09-12T16:06:17;10.65;;;7.65;;
21352;SDS011;10834;52.268;6.770;2023-09-12T16:09:02;9.52;;;7.68;;
21352;SDS011;10834;52.268;6.770;2023-09-12T16:11:47;7.40;;;6.60;;
21352;SDS011;10834;52.268;6.770;2023-09-12T16:14:31;8.38;;;7.50;;
21352;SDS011;10834;52.268;6.770;2023-09-12T16:17:15;9.32;;;8.43;;
21352;SDS011;10834;52.268;6.770;2023-09-12T16:19:59;8.50;;;7.63;;
21352;SDS011;10834;52.268;6.770;2023-09-12T16:22:43;7.32;;;6.72;;
21352;SDS011;10834;52.268;6.770;2023-09-12T16:25:27;10.30;;;7.43;;
21352;SDS011;10834;52.268;6.770;2023-09-12T16:28:11;8.77;;;7.30;;